Time;durP1;ratioP1;P1;durP2;ratioP2;P2;SDS_P1;SDS_P2;PMS_P1;PMS_P2;Temp;Humidity;BMP_temperature;BMP_pressure;BME280_temperature;BME280_humidity;BME280_pressure;Samples;Min_cycle;Max_cycle;Signal;HPM_P1;HPM_P2
2023/02/15 00:00:20;;;;;;;5.50;4.50;;;9.00;95.00;;;;;;4996532;28;20219;-63
2023/02/15 00:02:47;;;;;;;6.03;4.33;;;9.00;95.10;;;;;;4996909;28;20233;-62
2023/02/15 00:05:14;;;;;;;6.77;4.07;;;8.90;95.10;;;;;;4994369;28;20192;-62
2023/02/15 00:07:41;;;;;;;4.10;3.70;;;9.00;95.10;;;;;;4996999;28;20544;-62
2023/02/15 00:10:09;;;;;;;6.40;4.47;;;9.00;95.10;;;;;;4997819;28;20252;-62
2023/02/15 00:12:36;;;;;;;5.10;3.93;;;8.30;94.80;;;;;;5002774;28;20210;-62
2023/02/15 00:15:05;;;;;;;7.17;4.37;;;9.00;95.00;;;;;;5000839;28;20201;-62
2023/02/15 00:17:32;;;;;;;9.57;5.33;;;9.00;95.00;;;;;;4995190;28;20247;-62
2023/02/15 00:19:59;;;;;;;5.90;4.70;;;9.00;95.00;;;;;;5001782;28;20200;-62
2023/02/15 00:22:26;;;;;;;4.93;4.20;;;9.00;95.10;;;;;;4998805;28;20626;-62
2023/02/15 00:24:53;;;;;;;4.80;3.77;;;9.00;95.10;;;;;;4997184;28;20211;-63
2023/02/15 00:27:20;;;;;;;7.73;5.40;;;9.00;95.10;;;;;;5009480;28;20977;-62
2023/02/15 00:29:48;;;;;;;13.53;6.80;;;8.90;95.00;;;;;;4996127;28;20202;-63
2023/02/15 00:32:17;;;;;;;11.83;5.67;;;8.90;94.90;;;;;;5015842;28;20207;-62
2023/02/15 00:34:44;;;;;;;5.47;4.30;;;8.90;95.00;;;;;;4995933;28;20209;-62
2023/02/15 00:37:11;;;;;;;6.00;4.47;;;8.90;95.10;;;;;;5005637;28;20225;-62
2023/02/15 00:39:38;;;;;;;6.67;4.27;;;8.90;95.10;;;;;;5001619;28;20221;-62
2023/02/15 00:42:06;;;;;;;5.67;4.23;;;8.90;95.10;;;;;;4993654;28;20198;-62
2023/02/15 00:44:33;;;;;;;8.40;5.77;;;8.90;95.10;;;;;;5002214;28;20755;-62
2023/02/15 00:47:00;;;;;;;10.50;6.10;;;8.90;95.10;;;;;;5007441;28;20709;-62
2023/02/15 00:49:29;;;;;;;12.10;7.27;;;8.90;95.10;;;;;;5004817;28;20222;-62
2023/02/15 00:51:56;;;;;;;13.57;7.20;;;8.90;95.20;;;;;;4993716;28;20195;-62
2023/02/15 00:54:23;;;;;;;9.10;6.03;;;8.80;95.20;;;;;;4995691;28;20671;-61
2023/02/15 00:56:50;;;;;;;13.27;7.50;;;8.80;95.20;;;;;;5010481;28;20202;-62
2023/02/15 00:59:21;;;;;;;14.90;7.57;;;8.80;95.40;;;;;;4993038;28;20274;-62
2023/02/15 01:01:48;;;;;;;15.23;8.67;;;8.70;95.40;;;;;;4995429;28;20202;-61
2023/02/15 01:04:15;;;;;;;12.77;7.80;;;8.70;95.60;;;;;;4997034;28;20299;-61
2023/02/15 01:06:47;;;;;;;16.40;8.03;;;8.70;95.70;;;;;;4994136;28;20251;-63
2023/02/15 01:09:14;;;;;;;13.63;7.37;;;8.60;95.80;;;;;;5000853;28;20295;-62
2023/02/15 01:11:41;;;;;;;18.40;8.70;;;8.50;95.80;;;;;;4997687;28;20197;-61
2023/02/15 01:14:08;;;;;;;15.27;8.43;;;8.50;96.00;;;;;;4994149;28;20209;-63
2023/02/15 01:16:39;;;;;;;19.30;9.37;;;8.50;96.10;;;;;;5013967;28;20207;-62
2023/02/15 01:19:06;;;;;;;18.23;9.80;;;8.40;96.10;;;;;;4994978;28;20197;-62
2023/02/15 01:21:34;;;;;;;16.70;9.37;;;8.40;96.30;;;;;;5001335;28;20731;-63
2023/02/15 01:24:05;;;;;;;15.87;8.57;;;8.40;96.40;;;;;;5021021;28;21229;-63
2023/02/15 01:26:32;;;;;;;13.73;8.67;;;8.30;96.50;;;;;;4998158;28;20657;-64
2023/02/15 01:28:59;;;;;;;15.97;9.00;;;8.30;96.60;;;;;;4996195;28;20206;-63
2023/02/15 01:31:26;;;;;;;12.93;8.30;;;8.30;96.80;;;;;;4992155;28;20200;-62
2023/02/15 01:33:53;;;;;;;8.43;6.50;;;8.20;96.80;;;;;;5001444;28;20200;-62
2023/02/15 01:36:20;;;;;;;8.53;6.37;;;8.20;96.90;;;;;;4993038;28;20192;-62
2023/02/15 01:38:49;;;;;;;8.90;5.47;;;8.20;96.90;;;;;;5008636;28;20199;-63
2023/02/15 01:41:22;;;;;;;9.17;6.03;;;8.30;96.90;;;;;;4993225;28;20216;-62
2023/02/15 01:43:52;;;;;;;9.60;6.23;;;8.30;97.00;;;;;;4995451;28;20203;-62
2023/02/15 01:46:23;;;;;;;8.57;5.73;;;8.30;97.00;;;;;;4994528;28;20203;-63
2023/02/15 01:48:56;;;;;;;13.23;7.20;;;8.30;97.00;;;;;;4991891;28;20197;-62
2023/02/15 01:51:30;;;;;;;8.60;5.77;;;8.30;97.00;;;;;;4995056;28;20207;-63
2023/02/15 01:54:02;;;;;;;6.37;5.13;;;8.30;97.00;;;;;;4997831;28;20188;-63
2023/02/15 01:56:34;;;;;;;5.90;4.57;;;8.20;97.00;;;;;;4996798;28;20279;-62
2023/02/15 01:59:05;;;;;;;8.47;5.50;;;8.30;97.10;;;;;;4993142;28;20295;-63
2023/02/15 02:01:33;;;;;;;6.47;4.60;;;8.30;97.10;;;;;;4995348;28;20206;-63
2023/02/15 02:04:06;;;;;;;9.87;5.83;;;8.30;97.20;;;;;;4994330;28;20224;-63
2023/02/15 02:06:36;;;;;;;11.73;7.13;;;8.30;97.20;;;;;;4998314;28;20707;-62
2023/02/15 02:09:04;;;;;;;10.77;6.30;;;8.30;97.20;;;;;;4997386;28;20289;-62
2023/02/15 02:11:34;;;;;;;8.43;5.67;;;8.30;97.20;;;;;;5007393;28;20201;-62
2023/02/15 02:14:01;;;;;;;8.03;5.33;;;8.30;97.20;;;;;;4993682;28;20199;-62
2023/02/15 02:16:38;;;;;;;10.97;5.87;;;8.30;97.20;;;;;;4997085;28;20201;-64
2023/02/15 02:19:38;;;;;;;8.00;5.53;;;8.30;97.20;;;;;;4997481;28;20187;-62
2023/02/15 02:22:51;;;;;;;7.07;5.50;;;8.20;97.20;;;;;;5020150;28;20232;-63
2023/02/15 02:25:55;;;;;;;8.40;5.17;;;8.20;97.20;;;;;;4967798;28;20227;-63
2023/02/15 02:28:51;;;;;;;7.30;5.30;;;8.30;97.30;;;;;;5010279;28;20204;-62
2023/02/15 02:31:40;;;;;;;9.73;5.83;;;8.20;97.20;;;;;;4992722;28;21112;-62
2023/02/15 02:34:15;;;;;;;8.47;5.43;;;8.20;97.30;;;;;;4998836;28;20208;-63
2023/02/15 02:36:50;;;;;;;13.87;7.00;;;8.20;97.30;;;;;;4995251;28;20213;-63
2023/02/15 02:39:28;;;;;;;13.50;7.60;;;8.20;97.30;;;;;;5013337;28;20202;-62
2023/02/15 02:42:01;;;;;;;12.97;6.83;;;8.20;97.40;;;;;;5008525;28;20246;-63
2023/02/15 02:44:36;;;;;;;11.80;6.87;;;8.20;97.40;;;;;;4993365;28;20216;-63
2023/02/15 02:47:09;;;;;;;12.20;6.70;;;8.20;97.50;;;;;;4995291;28;20611;-63
2023/02/15 02:49:40;;;;;;;12.53;6.93;;;8.20;97.50;;;;;;4990558;28;20208;-61
2023/02/15 02:52:28;;;;;;;9.10;6.37;;;8.20;97.60;;;;;;5010178;28;20214;-62
2023/02/15 02:54:57;;;;;;;11.23;6.67;;;8.20;97.60;;;;;;5005129;28;20743;-62
2023/02/15 02:57:28;;;;;;;11.93;7.73;;;8.20;97.70;;;;;;5006938;28;20584;-62
2023/02/15 02:59:57;;;;;;;14.03;7.70;;;8.20;97.80;;;;;;4993387;28;20586;-62
2023/02/15 03:02:29;;;;;;;9.07;6.90;;;8.10;97.80;;;;;;4989291;28;20707;-62
2023/02/15 03:05:03;;;;;;;12.03;7.13;;;8.10;97.90;;;;;;5004043;28;20645;-63
2023/02/15 03:07:32;;;;;;;8.73;6.00;;;8.10;98.00;;;;;;4993482;28;20841;-63
2023/02/15 03:10:05;;;;;;;9.10;6.10;;;8.10;98.00;;;;;;5005286;28;20292;-63
2023/02/15 03:12:35;;;;;;;9.67;6.13;;;8.00;98.00;;;;;;4991551;28;20195;-63
2023/02/15 03:15:07;;;;;;;8.27;5.67;;;8.00;98.10;;;;;;5012014;28;20195;-63
2023/02/15 03:17:36;;;;;;;8.80;6.07;;;8.00;98.20;;;;;;5001623;28;20207;-63
2023/02/15 03:20:09;;;;;;;10.20;6.40;;;8.00;98.20;;;;;;5000570;28;20195;-63
2023/02/15 03:22:40;;;;;;;8.47;5.33;;;8.00;98.20;;;;;;5003616;28;20196;-63
2023/02/15 03:25:17;;;;;;;12.53;6.00;;;8.00;98.30;;;;;;4992999;28;20963;-63
2023/02/15 03:27:47;;;;;;;10.53;6.00;;;8.10;98.30;;;;;;4993818;28;20195;-63
2023/02/15 03:30:17;;;;;;;10.67;6.03;;;8.00;98.30;;;;;;4991226;28;20203;-62
2023/02/15 03:32:45;;;;;;;8.20;5.50;;;8.00;98.30;;;;;;4994691;28;20726;-63
2023/02/15 03:35:12;;;;;;;9.10;5.33;;;8.00;98.40;;;;;;4993595;28;20189;-63
2023/02/15 03:37:44;;;;;;;15.73;8.10;;;8.00;98.50;;;;;;5007054;28;20223;-62
2023/02/15 03:43:13;;;;;;;14.37;8.00;;;8.00;98.60;;;;;;4994090;28;20548;-62
2023/02/15 03:45:54;;;;;;;9.27;6.40;;;7.90;98.60;;;;;;5011866;28;20208;-63
2023/02/15 03:48:25;;;;;;;9.50;6.33;;;7.80;98.70;;;;;;4999180;28;20195;-63
2023/02/15 03:53:41;;;;;;;10.77;6.10;;;7.80;98.90;;;;;;4994280;28;20199;-62
2023/02/15 03:56:09;;;;;;;9.43;6.17;;;7.80;98.90;;;;;;4995608;28;20196;-64
2023/02/15 04:01:57;;;;;;;8.97;6.30;;;7.90;99.00;;;;;;5000107;28;20199;-62
2023/02/15 04:04:35;;;;;;;14.93;9.13;;;7.90;99.00;;;;;;4999726;28;20567;-62
2023/02/15 04:07:05;;;;;;;12.20;7.53;;;7.90;99.10;;;;;;4996219;28;20242;-63
2023/02/15 04:12:18;;;;;;;10.57;6.87;;;7.90;99.10;;;;;;4995830;28;20199;-63
2023/02/15 04:17:30;;;;;;;13.10;7.80;;;7.90;99.20;;;;;;4996315;28;20656;-62
2023/02/15 04:25:26;;;;;;;9.70;6.37;;;7.90;99.30;;;;;;4996770;28;20558;-63
2023/02/15 04:27:55;;;;;;;10.23;6.73;;;7.80;99.30;;;;;;4997321;28;20188;-63
2023/02/15 04:30:26;;;;;;;9.73;6.60;;;7.80;99.40;;;;;;5001611;28;20203;-62
2023/02/15 04:32:54;;;;;;;14.33;8.47;;;7.80;99.50;;;;;;5012790;28;20291;-62
2023/02/15 04:35:22;;;;;;;9.37;6.67;;;7.80;99.60;;;;;;4995443;28;20683;-62
2023/02/15 04:37:49;;;;;;;10.63;7.40;;;7.70;99.60;;;;;;4994680;28;20258;-62
2023/02/15 04:40:18;;;;;;;8.73;5.93;;;7.70;99.60;;;;;;4996562;28;20200;-62
2023/02/15 04:42:45;;;;;;;9.20;6.57;;;7.80;99.70;;;;;;4995631;28;20196;-63
2023/02/15 04:45:13;;;;;;;7.27;5.67;;;7.80;99.70;;;;;;5009786;28;20204;-63
2023/02/15 04:47:40;;;;;;;8.40;5.23;;;7.90;99.70;;;;;;5008539;28;20707;-62
2023/02/15 04:50:08;;;;;;;10.07;6.40;;;7.90;99.90;;;;;;4993165;28;20207;-62
2023/02/15 04:52:36;;;;;;;9.80;5.37;;;7.90;99.60;;;;;;4993756;28;20203;-61
2023/02/15 04:55:03;;;;;;;8.67;5.80;;;7.90;99.70;;;;;;4998478;28;20286;-62
2023/02/15 04:57:30;;;;;;;8.27;5.90;;;7.90;99.70;;;;;;4992944;28;20200;-62
2023/02/15 04:59:58;;;;;;;9.00;6.17;;;7.90;99.70;;;;;;4996394;28;20196;-62
2023/02/15 05:02:27;;;;;;;9.23;5.90;;;7.90;99.80;;;;;;5002712;28;20278;-61
2023/02/15 05:04:54;;;;;;;9.03;5.73;;;7.90;99.80;;;;;;4995641;28;20260;-62
2023/02/15 05:07:21;;;;;;;11.53;7.63;;;7.90;99.80;;;;;;4995821;28;20195;-61
2023/02/15 05:09:48;;;;;;;11.33;6.57;;;7.80;99.80;;;;;;4993010;28;20334;-62
2023/02/15 05:12:16;;;;;;;12.60;6.97;;;7.90;99.90;;;;;;5004724;28;20536;-63
2023/02/15 05:14:43;;;;;;;9.80;6.60;;;7.80;99.80;;;;;;4991446;28;20207;-62
2023/02/15 05:17:10;;;;;;;9.53;6.80;;;7.90;99.80;;;;;;4995738;28;20200;-62
2023/02/15 05:19:38;;;;;;;10.50;7.10;;;7.90;99.90;;;;;;5000177;28;20517;-62
2023/02/15 05:22:05;;;;;;;10.73;7.10;;;7.90;99.90;;;;;;5003895;28;20564;-62
2023/02/15 05:30:02;;;;;;;20.67;11.13;;;7.90;99.90;;;;;;5003710;28;20218;-63
2023/02/15 05:32:29;;;;;;;16.60;9.33;;;7.80;99.90;;;;;;4993708;28;20196;-63
2023/02/15 05:34:57;;;;;;;14.67;9.23;;;7.70;99.90;;;;;;4997230;28;20200;-63
2023/02/15 05:37:24;;;;;;;15.60;10.10;;;7.70;99.90;;;;;;4995027;28;20243;-62
2023/02/15 05:39:51;;;;;;;16.73;10.90;;;7.80;99.90;;;;;;4999917;28;20203;-62
2023/02/15 05:42:18;;;;;;;20.97;11.37;;;7.70;99.90;;;;;;5001360;28;20247;-63
2023/02/15 05:44:45;;;;;;;22.33;12.37;;;7.60;99.90;;;;;;4995539;28;21004;-63
2023/02/15 05:47:13;;;;;;;18.73;11.27;;;7.60;99.90;;;;;;4999576;28;20211;-62
2023/02/15 05:49:40;;;;;;;28.07;14.43;;;7.50;99.90;;;;;;4997700;28;20267;-62
2023/02/15 05:52:09;;;;;;;23.67;12.77;;;7.50;99.90;;;;;;4995477;28;20214;-62
2023/02/15 05:54:36;;;;;;;25.17;12.43;;;7.40;99.90;;;;;;4994077;28;20256;-62
2023/02/15 05:57:03;;;;;;;25.00;12.73;;;7.40;99.90;;;;;;4990445;28;20192;-62
2023/02/15 05:59:30;;;;;;;21.47;12.30;;;7.40;99.90;;;;;;5000280;28;20702;-63
2023/02/15 06:01:57;;;;;;;21.13;11.90;;;7.40;99.90;;;;;;4995042;28;20206;-63
2023/02/15 06:04:24;;;;;;;26.33;12.30;;;7.30;99.90;;;;;;4996948;28;20869;-62
2023/02/15 06:06:51;;;;;;;20.43;12.07;;;7.30;99.90;;;;;;4998113;28;20211;-61
2023/02/15 06:09:20;;;;;;;23.30;12.23;;;7.30;99.90;;;;;;4997798;28;20199;-62
2023/02/15 06:11:47;;;;;;;23.40;13.27;;;7.30;99.90;;;;;;4997310;28;20203;-63
2023/02/15 06:14:14;;;;;;;20.00;11.53;;;7.30;99.90;;;;;;5004752;28;20203;-63
2023/02/15 06:16:41;;;;;;;16.57;10.30;;;7.30;99.90;;;;;;4994678;28;20227;-63
2023/02/15 06:19:08;;;;;;;21.93;12.33;;;7.30;99.90;;;;;;4993208;28;20245;-62
2023/02/15 06:21:35;;;;;;;23.07;13.50;;;7.40;99.90;;;;;;4994183;28;20310;-62
2023/02/15 06:24:02;;;;;;;22.80;13.13;;;7.30;99.90;;;;;;4996103;28;20903;-62
2023/02/15 06:26:31;;;;;;;20.53;12.63;;;7.30;99.90;;;;;;5001065;28;20222;-61
2023/02/15 06:28:58;;;;;;;22.07;11.97;;;7.30;99.90;;;;;;4996271;28;20210;-62
2023/02/15 06:31:25;;;;;;;23.43;12.30;;;7.30;99.90;;;;;;4994100;28;20206;-63
2023/02/15 06:33:53;;;;;;;16.87;10.73;;;7.30;99.90;;;;;;4999158;28;20906;-63
2023/02/15 06:36:21;;;;;;;17.97;10.53;;;7.30;99.90;;;;;;4990657;28;20576;-62
2023/02/15 06:38:48;;;;;;;24.80;13.70;;;7.40;99.90;;;;;;4992034;28;20195;-61
2023/02/15 06:41:15;;;;;;;23.37;12.67;;;7.40;99.90;;;;;;4992853;28;20204;-62
2023/02/15 06:43:43;;;;;;;22.70;13.10;;;7.40;99.90;;;;;;4990631;28;20210;-62
2023/02/15 06:46:10;;;;;;;21.20;12.10;;;7.40;99.90;;;;;;4993987;28;20219;-63
2023/02/15 06:48:38;;;;;;;20.13;11.03;;;7.40;99.90;;;;;;4996259;28;20602;-61
2023/02/15 06:51:05;;;;;;;13.33;8.93;;;7.40;99.90;;;;;;4995462;28;20198;-62
2023/02/15 06:53:32;;;;;;;14.60;8.57;;;7.50;99.90;;;;;;4997145;28;20195;-62
2023/02/15 06:56:06;;;;;;;15.80;9.03;;;7.50;99.90;;;;;;4992696;28;20210;-63
2023/02/15 06:58:33;;;;;;;17.10;9.83;;;7.50;99.90;;;;;;4993055;28;20206;-63
2023/02/15 07:01:01;;;;;;;14.93;10.07;;;7.60;99.90;;;;;;4992080;28;20668;-63
2023/02/15 07:03:28;;;;;;;18.83;10.53;;;7.60;99.90;;;;;;4984634;28;20200;-63
2023/02/15 07:05:56;;;;;;;21.60;12.10;;;7.60;99.90;;;;;;4992904;28;20243;-63
2023/02/15 07:08:23;;;;;;;27.87;12.53;;;8.20;99.90;;;;;;4994244;28;20280;-63
2023/02/15 07:10:51;;;;;;;23.20;12.63;;;7.60;99.90;;;;;;5007794;28;20551;-62
2023/02/15 07:13:17;;;;;;;23.97;13.17;;;7.60;99.90;;;;;;4991625;28;20250;-63
2023/02/15 07:15:45;;;;;;;18.90;10.10;;;7.60;99.90;;;;;;5008776;28;20183;-61
2023/02/15 07:18:13;;;;;;;16.63;9.50;;;7.50;99.90;;;;;;4996372;28;20206;-62
2023/02/15 07:20:41;;;;;;;17.57;9.87;;;7.60;99.90;;;;;;4990852;28;20210;-62
2023/02/15 07:23:09;;;;;;;15.97;9.07;;;7.60;99.90;;;;;;4992249;28;20690;-63
2023/02/15 07:25:36;;;;;;;16.20;8.80;;;7.60;99.90;;;;;;4999074;28;20596;-62
2023/02/15 07:28:04;;;;;;;17.60;10.37;;;7.70;99.90;;;;;;4993317;28;20540;-61
2023/02/15 07:30:32;;;;;;;17.77;9.67;;;7.70;99.90;;;;;;4991355;28;20187;-62
2023/02/15 07:35:49;;;;;;;17.17;10.60;;;7.80;99.90;;;;;;4992603;28;20967;-62
2023/02/15 07:38:17;;;;;;;15.93;8.97;;;7.80;99.90;;;;;;4994202;28;20195;-61
2023/02/15 07:40:44;;;;;;;11.17;7.63;;;7.80;99.90;;;;;;4995770;28;20623;-63
2023/02/15 07:43:12;;;;;;;11.63;7.50;;;7.80;99.90;;;;;;4990693;28;20206;-61
2023/02/15 07:45:39;;;;;;;17.83;10.63;;;7.80;99.90;;;;;;4991824;28;20878;-62
2023/02/15 07:48:07;;;;;;;15.37;8.67;;;7.80;99.90;;;;;;4993449;28;20208;-62
2023/02/15 07:50:34;;;;;;;15.60;8.83;;;7.80;99.90;;;;;;4996499;28;20199;-62
2023/02/15 07:53:04;;;;;;;16.20;8.70;;;7.70;99.90;;;;;;5008891;28;20203;-63
2023/02/15 07:55:31;;;;;;;16.07;9.07;;;7.80;99.90;;;;;;4991770;28;20204;-62
2023/02/15 07:57:58;;;;;;;16.13;8.63;;;7.80;99.90;;;;;;4993231;28;20206;-62
2023/02/15 08:00:25;;;;;;;11.23;7.40;;;7.80;99.90;;;;;;4997955;28;20203;-62
2023/02/15 08:05:35;;;;;;;20.77;9.50;;;7.80;99.90;;;;;;4999868;28;21291;-62
2023/02/15 08:08:04;;;;;;;14.80;9.03;;;7.80;99.90;;;;;;4994585;28;21279;-63
2023/02/15 08:13:12;;;;;;;14.17;8.07;;;7.90;99.90;;;;;;4995398;28;20195;-63
2023/02/15 08:15:39;;;;;;;14.67;8.90;;;7.90;99.90;;;;;;4996980;28;20470;-62
2023/02/15 08:18:06;;;;;;;17.90;10.50;;;7.80;99.90;;;;;;4988079;28;20203;-62
2023/02/15 08:20:33;;;;;;;16.43;9.73;;;7.80;99.90;;;;;;5006144;28;20203;-62
2023/02/15 08:23:00;;;;;;;15.20;9.03;;;7.80;99.90;;;;;;5016293;28;20231;-62
2023/02/15 08:25:29;;;;;;;17.30;10.07;;;7.80;99.90;;;;;;4993233;28;20196;-62
2023/02/15 08:27:56;;;;;;;17.63;9.60;;;7.90;99.90;;;;;;4994137;28;20659;-62
2023/02/15 08:30:23;;;;;;;19.10;10.03;;;7.80;99.90;;;;;;4996820;28;20201;-63
2023/02/15 08:32:50;;;;;;;15.73;10.03;;;7.80;99.90;;;;;;4993059;28;20722;-63
2023/02/15 08:35:17;;;;;;;19.87;10.33;;;7.80;99.90;;;;;;4997691;28;20214;-62
2023/02/15 08:37:45;;;;;;;15.90;8.53;;;7.80;99.90;;;;;;4994202;28;20211;-62
2023/02/15 08:40:13;;;;;;;18.37;8.67;;;7.80;99.90;;;;;;4997612;28;20199;-62
2023/02/15 08:42:42;;;;;;;11.77;7.63;;;7.80;99.90;;;;;;5013971;28;20853;-62
2023/02/15 08:45:09;;;;;;;17.07;8.33;;;7.90;99.90;;;;;;4996817;28;20196;-61
2023/02/15 08:47:37;;;;;;;12.97;8.27;;;8.00;99.90;;;;;;5006395;28;20224;-62
2023/02/15 08:50:04;;;;;;;19.27;10.13;;;8.00;99.90;;;;;;4994761;28;20192;-62
2023/02/15 08:52:31;;;;;;;15.13;8.80;;;8.00;99.90;;;;;;5003451;28;20254;-62
2023/02/15 08:54:58;;;;;;;13.67;7.87;;;8.00;99.90;;;;;;5019162;28;20231;-62
2023/02/15 08:57:26;;;;;;;13.57;8.63;;;8.00;99.90;;;;;;5000332;28;20835;-62
2023/02/15 08:59:54;;;;;;;14.47;8.20;;;8.00;99.90;;;;;;5008802;28;20266;-61
2023/02/15 09:02:21;;;;;;;16.67;9.30;;;8.00;99.90;;;;;;5001151;28;20739;-62
2023/02/15 09:04:49;;;;;;;15.17;7.70;;;8.00;99.90;;;;;;5007474;28;20233;-63
2023/02/15 09:07:18;;;;;;;13.97;8.00;;;8.00;99.90;;;;;;4996693;28;20219;-63
2023/02/15 09:09:46;;;;;;;15.40;8.63;;;8.00;99.90;;;;;;4992702;28;20200;-62
2023/02/15 09:12:14;;;;;;;14.97;8.80;;;7.90;99.90;;;;;;5008666;28;20642;-63
2023/02/15 09:14:41;;;;;;;10.60;6.83;;;8.00;99.90;;;;;;4994168;28;20204;-62
2023/02/15 09:17:09;;;;;;;15.07;8.50;;;8.00;99.90;;;;;;4992431;28;20202;-62
2023/02/15 09:19:36;;;;;;;14.13;8.87;;;8.00;99.90;;;;;;4994225;28;20254;-61
2023/02/15 09:22:03;;;;;;;18.80;8.90;;;8.00;99.90;;;;;;4994110;28;20206;-62
2023/02/15 09:24:33;;;;;;;15.57;8.60;;;7.90;99.90;;;;;;4997095;28;20192;-61
2023/02/15 09:27:00;;;;;;;11.67;7.53;;;8.00;99.90;;;;;;5008762;28;20821;-62
2023/02/15 09:29:27;;;;;;;16.07;9.53;;;8.00;99.90;;;;;;4995301;28;20279;-62
2023/02/15 09:31:54;;;;;;;13.13;8.67;;;8.00;99.90;;;;;;4992899;28;20250;-63
2023/02/15 09:34:24;;;;;;;13.97;7.90;;;8.00;99.90;;;;;;4994247;28;20310;-62
2023/02/15 09:36:51;;;;;;;13.07;8.03;;;8.00;99.90;;;;;;5005786;28;20202;-63
2023/02/15 09:39:21;;;;;;;14.53;8.97;;;7.90;99.90;;;;;;5006358;28;20723;-62
2023/02/15 09:42:17;;;;;;;13.53;8.03;;;7.90;99.90;;;;;;5008599;28;20208;-62
2023/02/15 09:45:08;;;;;;;13.97;8.60;;;7.90;99.90;;;;;;4993483;28;20192;-62
2023/02/15 09:47:55;;;;;;;15.83;8.53;;;7.90;99.90;;;;;;4995308;28;20207;-62
2023/02/15 09:50:34;;;;;;;10.90;7.50;;;7.80;99.90;;;;;;4994762;28;20191;-63
2023/02/15 09:53:20;;;;;;;11.77;7.77;;;7.80;99.90;;;;;;5008828;28;20191;-62
2023/02/15 09:55:58;;;;;;;16.20;7.97;;;7.80;99.90;;;;;;4994967;28;20292;-62
2023/02/15 09:58:36;;;;;;;11.50;6.63;;;7.80;99.90;;;;;;4995273;28;20203;-62
2023/02/15 10:01:11;;;;;;;8.87;6.57;;;7.90;99.90;;;;;;4993054;28;20246;-63
2023/02/15 10:03:51;;;;;;;13.40;7.53;;;7.90;99.90;;;;;;5003962;28;20225;-62
2023/02/15 10:06:41;;;;;;;11.50;6.87;;;7.90;99.90;;;;;;4994725;28;20238;-63
2023/02/15 10:09:25;;;;;;;16.13;7.33;;;8.00;99.90;;;;;;4993745;28;20307;-62
2023/02/15 10:12:05;;;;;;;11.17;6.80;;;7.90;99.90;;;;;;4992303;28;20184;-62
2023/02/15 10:14:47;;;;;;;11.70;7.23;;;8.00;99.90;;;;;;5014633;28;20195;-63
2023/02/15 10:17:31;;;;;;;9.70;7.23;;;8.00;99.90;;;;;;4989268;28;20225;-62
2023/02/15 10:20:10;;;;;;;9.30;7.00;;;8.10;99.90;;;;;;4998865;28;20191;-63
2023/02/15 10:22:49;;;;;;;11.17;7.40;;;8.00;99.90;;;;;;4992039;28;20199;-62
2023/02/15 10:25:36;;;;;;;8.13;5.90;;;8.00;99.80;;;;;;4997850;28;20191;-60
2023/02/15 10:28:06;;;;;;;8.93;6.30;;;8.00;99.80;;;;;;5000755;28;20560;-62
2023/02/15 10:30:45;;;;;;;9.77;6.80;;;8.00;99.60;;;;;;4992184;28;20290;-62
2023/02/15 10:33:23;;;;;;;11.83;7.50;;;8.10;99.60;;;;;;4994948;28;20290;-62
2023/02/15 10:35:57;;;;;;;7.23;5.83;;;8.10;99.40;;;;;;4992229;28;20194;-62
2023/02/15 10:38:35;;;;;;;16.97;8.37;;;8.20;99.40;;;;;;5010009;28;20196;-62
2023/02/15 10:41:16;;;;;;;15.87;8.87;;;8.20;99.00;;;;;;4991748;28;20204;-62
2023/02/15 10:43:59;;;;;;;16.17;9.03;;;8.20;98.80;;;;;;4993542;28;20213;-63
2023/02/15 10:46:46;;;;;;;18.13;8.93;;;8.20;98.70;;;;;;4997419;28;20203;-62
2023/02/15 10:49:33;;;;;;;11.10;7.23;;;8.10;98.50;;;;;;4987815;28;20288;-62
2023/02/15 10:52:15;;;;;;;10.97;7.47;;;8.20;98.50;;;;;;4994090;28;20188;-62
2023/02/15 10:54:49;;;;;;;11.13;8.13;;;8.10;98.40;;;;;;4995155;28;20254;-63
2023/02/15 10:57:26;;;;;;;9.40;6.17;;;8.10;98.30;;;;;;4995343;28;20199;-62
2023/02/15 11:00:05;;;;;;;9.13;6.23;;;8.20;98.40;;;;;;4991555;28;20192;-62
2023/02/15 11:03:03;;;;;;;10.10;6.67;;;8.20;98.50;;;;;;4996903;28;20226;-62
2023/02/15 11:05:42;;;;;;;12.07;7.07;;;8.20;98.40;;;;;;4982104;28;20223;-61
2023/02/15 11:08:11;;;;;;;14.67;7.87;;;8.30;98.40;;;;;;4997465;28;20233;-62
2023/02/15 11:10:44;;;;;;;10.43;7.03;;;8.30;98.30;;;;;;4997290;28;20309;-62
2023/02/15 11:13:16;;;;;;;19.77;9.70;;;8.40;98.20;;;;;;4996844;28;20199;-63
2023/02/15 11:15:46;;;;;;;18.20;9.83;;;8.30;98.00;;;;;;4994279;28;20206;-63
2023/02/15 11:18:23;;;;;;;14.83;9.97;;;8.30;98.00;;;;;;4999102;28;20198;-62
2023/02/15 11:20:55;;;;;;;10.83;8.07;;;8.30;98.00;;;;;;4996157;28;20182;-62
2023/02/15 11:23:25;;;;;;;14.40;9.00;;;8.30;98.10;;;;;;5016013;28;20203;-62
2023/02/15 11:25:58;;;;;;;12.50;8.37;;;8.30;98.10;;;;;;4991930;28;20223;-61
2023/02/15 11:28:31;;;;;;;13.20;8.93;;;8.30;98.10;;;;;;4991350;28;20216;-62
2023/02/15 11:31:02;;;;;;;13.90;9.53;;;8.30;98.00;;;;;;4993640;28;20279;-63
2023/02/15 11:33:33;;;;;;;14.77;8.17;;;8.30;97.90;;;;;;4991042;28;20201;-63
2023/02/15 11:36:05;;;;;;;13.73;9.37;;;8.30;97.90;;;;;;4991044;28;20205;-62
2023/02/15 11:38:34;;;;;;;13.90;9.30;;;8.40;97.80;;;;;;4994641;28;20684;-61
2023/02/15 11:41:06;;;;;;;17.53;11.00;;;8.40;97.90;;;;;;4992505;28;20280;-62
2023/02/15 11:43:39;;;;;;;16.30;11.10;;;8.40;97.80;;;;;;4995681;28;20270;-61
2023/02/15 11:52:07;;;;;;;18.03;10.07;;;8.40;97.60;;;;;;5037049;28;20236;-62
2023/02/15 11:54:38;;;;;;;17.93;10.20;;;8.40;97.60;;;;;;5059014;28;20747;-63
2023/02/15 11:57:15;;;;;;;18.23;10.80;;;8.40;97.60;;;;;;5061787;28;20201;-63
2023/02/15 11:59:47;;;;;;;14.47;10.07;;;8.40;97.50;;;;;;5050141;28;20265;-62
2023/02/15 12:02:18;;;;;;;14.83;10.40;;;8.40;97.50;;;;;;5066230;28;20197;-63
2023/02/15 12:04:51;;;;;;;13.60;8.60;;;8.50;97.50;;;;;;5067909;28;20190;-63
2023/02/15 12:07:25;;;;;;;14.80;8.97;;;8.50;97.50;;;;;;5068057;28;20198;-62
2023/02/15 12:09:58;;;;;;;19.37;11.13;;;8.50;97.50;;;;;;5065014;28;20273;-63
2023/02/15 12:12:29;;;;;;;19.93;11.57;;;8.60;97.50;;;;;;5068191;28;20620;-64
2023/02/15 12:14:57;;;;;;;18.30;9.63;;;8.60;97.40;;;;;;5049006;28;20197;-64
2023/02/15 12:17:27;;;;;;;15.57;10.33;;;8.60;97.50;;;;;;5067411;28;20190;-62
2023/02/15 12:19:57;;;;;;;14.93;9.30;;;8.60;97.40;;;;;;5065044;28;20285;-63
2023/02/15 12:22:26;;;;;;;17.47;10.87;;;8.60;97.40;;;;;;5066620;28;20245;-63
2023/02/15 12:24:57;;;;;;;12.50;9.30;;;8.60;97.30;;;;;;5069874;28;20198;-63
2023/02/15 12:27:28;;;;;;;15.90;9.60;;;8.60;97.30;;;;;;5067082;28;20208;-63
2023/02/15 12:30:00;;;;;;;19.27;10.70;;;8.60;97.20;;;;;;5069122;28;20198;-63
2023/02/15 12:32:31;;;;;;;20.27;12.10;;;8.70;97.10;;;;;;5065482;28;20250;-63
2023/02/15 12:35:09;;;;;;;15.80;10.70;;;8.70;96.70;;;;;;5047471;28;20274;-64
2023/02/15 12:37:36;;;;;;;17.13;10.27;;;8.60;96.80;;;;;;5067296;28;21424;-64
2023/02/15 12:40:20;;;;;;;14.17;9.53;;;8.70;96.70;;;;;;5067189;28;20197;-63
2023/02/15 12:42:51;;;;;;;14.80;9.93;;;8.70;96.80;;;;;;5062611;28;20204;-62
2023/02/15 12:45:25;;;;;;;16.00;9.70;;;8.70;96.70;;;;;;5067238;28;20197;-63
2023/02/15 12:48:15;;;;;;;15.70;10.53;;;8.70;96.60;;;;;;5066124;28;20202;-64
2023/02/15 12:50:44;;;;;;;16.00;10.07;;;8.70;96.50;;;;;;5067740;28;20657;-64
2023/02/15 12:53:18;;;;;;;12.10;8.53;;;8.70;96.50;;;;;;5047859;28;20239;-62
2023/02/15 12:55:59;;;;;;;15.57;10.20;;;8.70;96.60;;;;;;5061598;28;20211;-63
2023/02/15 12:58:31;;;;;;;16.17;10.27;;;8.70;96.50;;;;;;5065956;28;20190;-64
2023/02/15 13:01:12;;;;;;;12.97;8.93;;;8.70;96.30;;;;;;5049386;28;20189;-65
2023/02/15 13:03:50;;;;;;;13.13;9.03;;;8.70;96.40;;;;;;5066950;28;20251;-64
2023/02/15 13:06:19;;;;;;;13.47;8.73;;;8.80;96.40;;;;;;5065411;28;20196;-62
2023/02/15 13:08:49;;;;;;;12.43;7.07;;;8.80;96.40;;;;;;5065119;28;20243;-62
2023/02/15 13:11:23;;;;;;;14.60;8.53;;;8.80;96.40;;;;;;5045980;28;20218;-63
2023/02/15 13:13:55;;;;;;;17.77;10.07;;;8.90;96.40;;;;;;5047691;28;20810;-63
2023/02/15 13:16:31;;;;;;;12.60;8.23;;;8.90;96.40;;;;;;5056651;28;20196;-62
2023/02/15 13:19:04;;;;;;;11.30;7.40;;;8.90;96.40;;;;;;5066078;28;20205;-62
2023/02/15 13:21:36;;;;;;;15.13;9.30;;;8.90;96.50;;;;;;5066163;28;20654;-62
2023/02/15 13:24:07;;;;;;;17.60;10.53;;;8.90;96.40;;;;;;5064609;28;20211;-63
2023/02/15 13:26:36;;;;;;;13.10;8.63;;;8.90;96.40;;;;;;5067658;28;20195;-63
2023/02/15 13:29:11;;;;;;;18.33;10.57;;;8.90;96.60;;;;;;5048420;28;20242;-62
2023/02/15 13:31:40;;;;;;;13.27;8.80;;;9.00;96.50;;;;;;5065482;28;20204;-62
2023/02/15 13:34:13;;;;;;;18.87;12.40;;;9.00;96.40;;;;;;5065267;28;20752;-63
2023/02/15 13:36:46;;;;;;;20.80;11.40;;;9.00;96.20;;;;;;5065763;28;20239;-61
2023/02/15 13:39:25;;;;;;;22.83;11.93;;;9.00;96.20;;;;;;5065668;28;20233;-62
2023/02/15 13:41:59;;;;;;;16.63;11.10;;;9.00;96.20;;;;;;5063624;28;20191;-64
2023/02/15 13:44:52;;;;;;;13.87;9.40;;;8.90;96.10;;;;;;5063411;28;20424;-63
2023/02/15 13:47:25;;;;;;;19.27;11.17;;;9.00;96.20;;;;;;5058365;28;20227;-63